Time;durP1;ratioP1;P1;durP2;ratioP2;P2;SDS_P1;SDS_P2;PMS_P1;PMS_P2;Temp;Humidity;BMP_temperature;BMP_pressure;BME280_temperature;BME280_humidity;BME280_pressure;Samples;Min_cycle;Max_cycle;Signal;HPM_P1;HPM_P2
2021/01/08 00:01:47;;;;;;;19.33;10.93;;;0.70;31.80;;;;;;4846539;28;20244;-73
2021/01/08 00:04:10;;;;;;;18.90;10.97;;;0.70;31.90;;;;;;4846325;28;20676;-74
2021/01/08 00:06:32;;;;;;;18.70;11.83;;;0.60;33.10;;;;;;4820905;28;20687;-74
2021/01/08 00:08:54;;;;;;;18.93;10.50;;;0.70;33.60;;;;;;4845109;28;20241;-74
2021/01/08 00:11:19;;;;;;;17.27;10.33;;;0.70;34.50;;;;;;4852022;28;20217;-74
2021/01/08 00:13:42;;;;;;;15.47;9.57;;;0.70;34.60;;;;;;4844412;28;21068;-74
2021/01/08 00:16:07;;;;;;;14.60;10.00;;;0.70;36.10;;;;;;4847835;28;20673;-73
2021/01/08 00:18:29;;;;;;;17.10;10.37;;;0.70;37.30;;;;;;4836218;28;20222;-74
2021/01/08 00:20:51;;;;;;;16.33;9.87;;;0.70;36.50;;;;;;4844300;28;20648;-73
2021/01/08 00:23:13;;;;;;;15.67;10.07;;;0.70;34.40;;;;;;4853685;28;20615;-75
2021/01/08 00:25:35;;;;;;;15.97;9.10;;;0.70;33.70;;;;;;4842384;28;20202;-73
2021/01/08 00:27:58;;;;;;;15.60;9.60;;;0.70;34.20;;;;;;4847954;28;20616;-74
2021/01/08 00:30:21;;;;;;;14.53;9.47;;;0.70;34.50;;;;;;4847539;28;20715;-74
2021/01/08 00:32:45;;;;;;;14.53;9.07;;;0.80;35.00;;;;;;4845353;28;20263;-73
2021/01/08 00:35:09;;;;;;;14.33;8.73;;;0.80;36.10;;;;;;4850562;28;20648;-74
2021/01/08 00:37:31;;;;;;;14.57;8.93;;;0.70;38.00;;;;;;4850750;28;20265;-74
2021/01/08 00:39:53;;;;;;;12.90;9.20;;;0.70;38.60;;;;;;4849508;28;20671;-74
2021/01/08 00:42:15;;;;;;;14.37;8.73;;;0.70;40.30;;;;;;4824234;28;20196;-73
2021/01/08 00:44:38;;;;;;;14.73;9.70;;;0.70;41.20;;;;;;4844326;28;20236;-74
2021/01/08 00:47:01;;;;;;;12.90;8.73;;;0.70;41.50;;;;;;4853823;28;20260;-73
2021/01/08 00:49:23;;;;;;;13.67;9.50;;;0.70;41.90;;;;;;4849626;28;20241;-74
2021/01/08 00:51:46;;;;;;;15.80;9.20;;;0.70;41.60;;;;;;4854372;28;20727;-74
2021/01/08 00:54:08;;;;;;;12.13;8.27;;;0.60;43.10;;;;;;4856384;28;20745;-75
2021/01/08 00:56:32;;;;;;;13.40;9.23;;;0.70;44.10;;;;;;4846702;28;20203;-74
2021/01/08 00:59:05;;;;;;;15.87;9.80;;;0.70;44.40;;;;;;4846369;28;20632;-74
2021/01/08 01:01:28;;;;;;;16.20;10.03;;;0.70;44.60;;;;;;4837873;28;20661;-74
2021/01/08 01:03:51;;;;;;;17.03;11.07;;;0.70;45.80;;;;;;4851512;28;20636;-73
2021/01/08 01:06:22;;;;;;;17.33;11.47;;;0.70;46.60;;;;;;4848831;28;20299;-74
2021/01/08 01:08:44;;;;;;;20.00;10.83;;;0.70;48.20;;;;;;4850005;28;21002;-74
2021/01/08 01:11:06;;;;;;;16.27;10.80;;;0.60;49.40;;;;;;4852613;28;20651;-75
2021/01/08 01:13:28;;;;;;;16.50;10.73;;;0.90;50.70;;;;;;4850269;28;20752;-76
2021/01/08 01:15:51;;;;;;;19.43;10.77;;;0.70;50.90;;;;;;4851400;28;20599;-74
2021/01/08 01:18:13;;;;;;;18.70;11.40;;;0.60;50.80;;;;;;4849477;28;20697;-74
2021/01/08 01:20:36;;;;;;;17.80;11.40;;;0.70;52.60;;;;;;4843162;28;20623;-73
2021/01/08 01:22:58;;;;;;;17.20;11.03;;;0.50;53.50;;;;;;4851527;28;20585;-73
2021/01/08 01:25:20;;;;;;;17.60;11.60;;;0.60;54.20;;;;;;4855326;28;20615;-73
2021/01/08 01:27:42;;;;;;;17.57;11.53;;;0.50;55.90;;;;;;4828602;28;20694;-73
2021/01/08 01:30:06;;;;;;;16.73;11.90;;;0.60;60.50;;;;;;4857222;28;20252;-73
2021/01/08 01:32:28;;;;;;;19.07;11.37;;;0.60;61.20;;;;;;4849343;28;20627;-74
2021/01/08 01:34:50;;;;;;;18.40;11.37;;;0.70;63.10;;;;;;4857062;28;20190;-73
2021/01/08 01:37:13;;;;;;;18.13;12.40;;;0.70;63.60;;;;;;4841384;28;20241;-73
2021/01/08 01:39:36;;;;;;;17.80;11.47;;;0.60;64.00;;;;;;4846568;28;20608;-74
2021/01/08 01:41:58;;;;;;;18.53;11.63;;;0.50;65.20;;;;;;4847158;28;20698;-73
2021/01/08 01:44:20;;;;;;;15.57;9.90;;;0.60;66.10;;;;;;4847278;28;20626;-73
2021/01/08 01:46:42;;;;;;;18.00;11.27;;;0.60;67.10;;;;;;4843925;28;20654;-74
2021/01/08 01:49:04;;;;;;;16.00;10.80;;;0.60;68.30;;;;;;4849457;28;20238;-74
2021/01/08 01:51:27;;;;;;;17.03;11.67;;;0.70;68.80;;;;;;4847563;28;20554;-76
2021/01/08 01:53:51;;;;;;;17.43;12.70;;;0.70;68.50;;;;;;4844833;28;20198;-73
2021/01/08 01:56:14;;;;;;;20.33;14.20;;;0.70;67.50;;;;;;4841930;28;21243;-74
2021/01/08 01:58:36;;;;;;;20.10;13.40;;;0.80;63.00;;;;;;4848176;28;21092;-73
2021/01/08 02:00:58;;;;;;;19.50;12.67;;;0.80;60.00;;;;;;4850823;28;20252;-73
2021/01/08 02:03:25;;;;;;;19.50;11.10;;;0.80;59.90;;;;;;4842658;28;20240;-74
2021/01/08 02:05:49;;;;;;;18.00;10.97;;;0.80;57.10;;;;;;4850489;28;20218;-74
2021/01/08 02:08:16;;;;;;;16.03;11.23;;;0.80;56.70;;;;;;4847249;28;20624;-74
2021/01/08 02:10:43;;;;;;;17.93;11.23;;;0.80;55.80;;;;;;4849505;28;20206;-74
2021/01/08 02:13:07;;;;;;;19.30;10.23;;;1.30;57.00;;;;;;4856676;28;20793;-73
2021/01/08 02:15:30;;;;;;;17.60;10.97;;;0.70;56.90;;;;;;4842299;28;20649;-74
2021/01/08 02:17:52;;;;;;;17.23;12.17;;;0.70;56.60;;;;;;4846909;28;20245;-73
2021/01/08 02:20:15;;;;;;;16.63;11.57;;;0.70;57.60;;;;;;4848670;28;20186;-73
2021/01/08 02:22:46;;;;;;;17.27;11.77;;;0.70;59.20;;;;;;4847050;28;20237;-73
2021/01/08 02:25:16;;;;;;;17.70;11.10;;;0.70;60.10;;;;;;4841847;28;20182;-73
2021/01/08 02:27:40;;;;;;;17.07;11.63;;;0.70;60.00;;;;;;4843702;28;20260;-73
2021/01/08 02:30:04;;;;;;;18.83;13.03;;;0.70;59.90;;;;;;4854916;28;20194;-74
2021/01/08 02:32:26;;;;;;;21.27;13.10;;;0.80;59.20;;;;;;4846527;28;20245;-77
2021/01/08 02:34:48;;;;;;;21.70;15.00;;;0.80;59.40;;;;;;4845829;28;20667;-77
2021/01/08 02:37:11;;;;;;;20.97;13.30;;;0.80;59.80;;;;;;4853798;28;20239;-74
2021/01/08 02:39:33;;;;;;;17.07;12.27;;;0.80;60.00;;;;;;4821968;28;20688;-73
2021/01/08 02:41:57;;;;;;;18.80;12.07;;;0.80;60.80;;;;;;4852724;28;20228;-74
2021/01/08 02:44:21;;;;;;;18.93;11.90;;;0.70;61.10;;;;;;4849011;28;20190;-74
2021/01/08 02:46:44;;;;;;;19.47;11.50;;;0.70;61.20;;;;;;4834419;28;20278;-74
2021/01/08 02:49:06;;;;;;;14.57;10.30;;;0.70;62.00;;;;;;4847240;28;20656;-74
2021/01/08 02:51:29;;;;;;;14.30;9.73;;;0.80;62.60;;;;;;4846495;28;20182;-75
2021/01/08 02:53:52;;;;;;;13.27;9.50;;;0.70;63.40;;;;;;4838469;28;20194;-74
2021/01/08 02:56:17;;;;;;;13.70;9.60;;;0.80;59.70;;;;;;4837937;28;20190;-74
2021/01/08 02:58:41;;;;;;;14.00;8.57;;;0.70;60.00;;;;;;4852539;28;20261;-74
2021/01/08 03:01:04;;;;;;;11.83;8.77;;;0.80;59.00;;;;;;4837801;28;20608;-74
2021/01/08 03:03:28;;;;;;;15.53;8.07;;;0.80;51.00;;;;;;4847076;28;20198;-77
2021/01/08 03:05:51;;;;;;;11.87;8.67;;;0.80;50.70;;;;;;4855488;28;20600;-74
2021/01/08 03:08:13;;;;;;;11.73;8.23;;;0.80;45.80;;;;;;4847372;28;20206;-74
2021/01/08 03:10:35;;;;;;;12.63;9.00;;;0.80;43.60;;;;;;4849163;28;20210;-73
2021/01/08 03:13:01;;;;;;;13.47;9.17;;;0.80;43.30;;;;;;4848564;28;20225;-74
2021/01/08 03:15:24;;;;;;;13.77;9.40;;;0.80;44.70;;;;;;4848447;28;20199;-73
2021/01/08 03:17:46;;;;;;;13.27;9.00;;;0.80;46.10;;;;;;4847807;28;20233;-74
2021/01/08 03:20:09;;;;;;;13.73;9.73;;;0.90;46.70;;;;;;4841002;28;20583;-75
2021/01/08 03:22:31;;;;;;;14.93;11.57;;;0.80;48.40;;;;;;4839942;28;20599;-74
2021/01/08 03:24:54;;;;;;;15.17;11.13;;;0.90;49.20;;;;;;4845942;28;20190;-74
2021/01/08 03:27:16;;;;;;;12.63;10.27;;;0.90;53.50;;;;;;4855394;28;21188;-74
2021/01/08 03:29:38;;;;;;;18.97;12.93;;;1.00;55.20;;;;;;4844983;28;20244;-73
2021/01/08 03:32:01;;;;;;;13.23;9.23;;;0.90;55.40;;;;;;4844581;28;20245;-73
2021/01/08 03:34:23;;;;;;;14.27;9.47;;;1.00;49.30;;;;;;4829194;28;20274;-74
2021/01/08 03:36:45;;;;;;;11.43;8.03;;;1.00;49.50;;;;;;4838414;28;20236;-74
2021/01/08 03:39:08;;;;;;;10.90;7.70;;;1.00;47.50;;;;;;4842201;28;20272;-73
2021/01/08 03:41:30;;;;;;;9.80;7.30;;;1.00;45.40;;;;;;4852500;28;20220;-75
2021/01/08 03:43:52;;;;;;;9.77;7.57;;;1.00;41.30;;;;;;4851255;28;20547;-73
2021/01/08 03:46:14;;;;;;;10.20;7.27;;;1.00;40.10;;;;;;4845678;28;20199;-74
2021/01/08 03:48:39;;;;;;;10.83;7.83;;;1.00;40.30;;;;;;4845799;28;20190;-73
2021/01/08 03:51:02;;;;;;;9.67;7.50;;;1.00;39.20;;;;;;4843519;28;20186;-74
2021/01/08 03:53:24;;;;;;;10.33;7.87;;;1.00;34.70;;;;;;4846053;28;20209;-73
2021/01/08 03:55:46;;;;;;;10.63;7.77;;;1.00;34.80;;;;;;4851087;28;20235;-74
2021/01/08 03:58:08;;;;;;;10.33;7.63;;;1.00;31.80;;;;;;4838506;28;20234;-74
2021/01/08 04:00:30;;;;;;;10.40;7.53;;;1.00;32.10;;;;;;4846506;28;20198;-74
2021/01/08 04:02:52;;;;;;;12.40;9.50;;;0.90;32.10;;;;;;4848248;28;20273;-73
2021/01/08 04:05:15;;;;;;;11.27;8.90;;;1.00;31.80;;;;;;4827338;28;20199;-73
2021/01/08 04:07:37;;;;;;;11.37;8.80;;;1.00;33.40;;;;;;4841495;28;20194;-74
2021/01/08 04:09:59;;;;;;;12.47;9.17;;;1.00;32.50;;;;;;4848429;28;20252;-74
2021/01/08 04:12:21;;;;;;;12.47;8.87;;;1.00;33.20;;;;;;4849794;28;20271;-73
2021/01/08 04:14:44;;;;;;;13.13;9.10;;;1.00;35.00;;;;;;4850489;28;20190;-74
2021/01/08 04:17:06;;;;;;;11.70;8.83;;;1.00;35.30;;;;;;4843035;28;20666;-73
2021/01/08 04:19:28;;;;;;;11.27;8.77;;;1.00;33.50;;;;;;4848142;28;20209;-74
2021/01/08 04:21:51;;;;;;;12.97;9.20;;;1.00;33.10;;;;;;4848918;28;20190;-74
2021/01/08 04:24:14;;;;;;;14.00;9.03;;;1.00;31.80;;;;;;4844913;28;20224;-74
2021/01/08 04:26:36;;;;;;;11.13;7.83;;;1.00;31.20;;;;;;4842640;28;20247;-73
2021/01/08 04:28:58;;;;;;;10.43;7.03;;;0.90;30.30;;;;;;4847119;28;20628;-74
2021/01/08 04:31:20;;;;;;;9.37;6.77;;;0.90;30.20;;;;;;4846072;28;20190;-73
2021/01/08 04:33:43;;;;;;;11.10;7.63;;;0.90;29.80;;;;;;4844347;28;20191;-76
2021/01/08 04:36:06;;;;;;;10.27;7.07;;;0.90;28.90;;;;;;4844671;28;20190;-74
2021/01/08 04:38:29;;;;;;;8.97;6.50;;;0.90;28.90;;;;;;4841209;28;20264;-74
2021/01/08 04:40:52;;;;;;;9.77;7.37;;;0.90;29.20;;;;;;4847010;28;20611;-73
2021/01/08 04:43:14;;;;;;;9.10;6.83;;;0.80;26.60;;;;;;4830020;28;20190;-75
2021/01/08 04:45:36;;;;;;;10.83;7.30;;;0.80;26.10;;;;;;4847908;28;20538;-74
2021/01/08 04:48:00;;;;;;;8.33;6.33;;;0.80;26.20;;;;;;4852641;28;20650;-74
2021/01/08 04:50:24;;;;;;;9.80;6.90;;;0.90;24.00;;;;;;4841068;28;20248;-74
2021/01/08 04:52:47;;;;;;;9.23;6.97;;;0.80;22.60;;;;;;4846749;28;21085;-73
2021/01/08 04:55:10;;;;;;;9.57;7.10;;;0.80;21.90;;;;;;4846164;28;20213;-74
2021/01/08 04:57:35;;;;;;;9.50;7.03;;;0.80;21.10;;;;;;4847533;28;20351;-74
2021/01/08 04:59:58;;;;;;;9.73;6.67;;;0.80;22.20;;;;;;4846933;28;20624;-74
2021/01/08 05:02:20;;;;;;;10.63;7.27;;;0.80;22.70;;;;;;4853404;28;20220;-73
2021/01/08 05:04:43;;;;;;;9.77;7.23;;;0.80;23.00;;;;;;4843974;28;20944;-73
2021/01/08 05:07:05;;;;;;;9.73;7.10;;;0.80;22.50;;;;;;4842879;28;20601;-74
2021/01/08 05:09:27;;;;;;;11.47;7.50;;;0.80;22.70;;;;;;4838805;28;20241;-80
2021/01/08 05:11:51;;;;;;;10.50;7.63;;;0.80;23.30;;;;;;4851046;28;20761;-74
2021/01/08 05:14:15;;;;;;;9.77;7.27;;;0.80;24.00;;;;;;4847524;28;20174;-74
2021/01/08 05:16:37;;;;;;;9.97;7.37;;;0.80;24.60;;;;;;4848502;28;20237;-74
2021/01/08 05:19:01;;;;;;;9.77;7.30;;;0.80;24.80;;;;;;4854144;28;20205;-74
2021/01/08 05:21:25;;;;;;;11.93;8.43;;;0.80;25.10;;;;;;4848675;28;20257;-74
2021/01/08 05:23:48;;;;;;;10.67;7.13;;;0.80;26.10;;;;;;4857060;28;20198;-74
2021/01/08 05:26:13;;;;;;;11.73;7.90;;;0.80;27.20;;;;;;4856460;28;20190;-74
2021/01/08 05:28:36;;;;;;;10.83;7.80;;;0.80;27.50;;;;;;4846975;28;20672;-74
2021/01/08 05:30:59;;;;;;;11.90;8.53;;;0.70;27.70;;;;;;4855085;28;20661;-74
2021/01/08 05:33:21;;;;;;;12.43;8.93;;;0.70;28.60;;;;;;4848936;28;20643;-73
2021/01/08 05:35:44;;;;;;;13.23;9.67;;;0.80;29.10;;;;;;4846594;28;20244;-74
2021/01/08 05:38:07;;;;;;;13.83;9.10;;;0.70;30.60;;;;;;4850683;28;20733;-74
2021/01/08 05:40:29;;;;;;;12.23;8.20;;;0.70;31.70;;;;;;4845989;28;20198;-76
2021/01/08 05:42:55;;;;;;;12.43;9.20;;;0.70;30.90;;;;;;4845475;28;20669;-74
2021/01/08 05:45:19;;;;;;;12.80;9.13;;;0.70;29.40;;;;;;4841258;28;20203;-74
2021/01/08 05:47:41;;;;;;;11.90;9.10;;;0.70;31.30;;;;;;4845375;28;20269;-74
2021/01/08 05:50:05;;;;;;;14.47;10.30;;;0.70;32.70;;;;;;4837082;28;20615;-74
2021/01/08 05:52:28;;;;;;;13.37;9.90;;;0.70;34.90;;;;;;4847599;28;20575;-75
2021/01/08 05:54:50;;;;;;;13.23;9.60;;;0.70;35.60;;;;;;4845278;28;21039;-74
2021/01/08 05:57:12;;;;;;;13.13;9.67;;;0.80;33.10;;;;;;4855222;28;20249;-73
2021/01/08 05:59:35;;;;;;;14.37;9.73;;;0.70;32.50;;;;;;4846687;28;20690;-74
2021/01/08 06:01:59;;;;;;;13.60;9.17;;;0.70;33.20;;;;;;4850383;28;20593;-76
2021/01/08 06:04:22;;;;;;;12.70;9.23;;;0.70;35.60;;;;;;4845450;28;20619;-74
2021/01/08 06:06:44;;;;;;;13.93;9.53;;;0.70;36.80;;;;;;4847828;28;20667;-74
2021/01/08 06:09:07;;;;;;;13.07;9.90;;;0.70;38.80;;;;;;4842581;28;20620;-74
2021/01/08 06:11:31;;;;;;;12.43;8.63;;;0.70;41.90;;;;;;4829615;28;20656;-74
2021/01/08 06:13:54;;;;;;;13.10;9.83;;;0.60;44.40;;;;;;4853100;28;21063;-73
2021/01/08 06:16:20;;;;;;;14.57;9.90;;;0.60;44.80;;;;;;4842609;28;20613;-74
2021/01/08 06:18:43;;;;;;;14.37;9.37;;;0.60;46.30;;;;;;4852011;28;20742;-74
2021/01/08 06:21:07;;;;;;;14.37;10.07;;;0.60;46.50;;;;;;4849758;28;21382;-75
2021/01/08 06:23:36;;;;;;;12.33;9.57;;;0.70;47.30;;;;;;4846546;28;20667;-74
2021/01/08 06:26:00;;;;;;;14.40;10.43;;;0.70;47.60;;;;;;4852899;28;20991;-74
2021/01/08 06:28:25;;;;;;;13.83;10.13;;;0.70;49.40;;;;;;4847361;28;20191;-73
2021/01/08 06:30:51;;;;;;;12.87;10.03;;;0.60;52.20;;;;;;4847214;28;21153;-73
2021/01/08 06:33:21;;;;;;;12.70;10.00;;;0.70;54.70;;;;;;4847909;28;20240;-73
2021/01/08 06:35:47;;;;;;;14.23;10.50;;;0.70;56.80;;;;;;4847092;28;20611;-74
2021/01/08 06:38:13;;;;;;;14.07;10.27;;;0.60;58.30;;;;;;4847438;28;20589;-74
2021/01/08 06:40:44;;;;;;;12.30;9.63;;;0.70;60.20;;;;;;4846954;28;20261;-74
2021/01/08 06:43:16;;;;;;;12.77;9.53;;;0.70;60.50;;;;;;4849428;28;20236;-74
2021/01/08 06:45:38;;;;;;;13.37;10.17;;;0.70;60.00;;;;;;4849713;28;20603;-74
2021/01/08 06:48:03;;;;;;;13.40;9.73;;;0.60;59.10;;;;;;4856289;28;20248;-73
2021/01/08 06:50:27;;;;;;;14.17;10.00;;;0.60;59.80;;;;;;4846515;28;20642;-76
2021/01/08 06:52:51;;;;;;;15.83;10.03;;;0.70;60.40;;;;;;4858233;28;21116;-74
2021/01/08 06:55:21;;;;;;;13.63;10.27;;;0.60;61.80;;;;;;4853789;28;20198;-74
2021/01/08 06:57:52;;;;;;;13.63;10.17;;;0.70;62.40;;;;;;4850831;28;20195;-73
2021/01/08 07:00:21;;;;;;;15.60;9.70;;;0.70;63.20;;;;;;4854534;28;20651;-74
2021/01/08 07:02:43;;;;;;;16.87;11.07;;;0.70;64.70;;;;;;4854187;28;20639;-73
2021/01/08 07:05:07;;;;;;;15.77;11.37;;;0.70;66.70;;;;;;4856057;28;20233;-76
2021/01/08 07:07:31;;;;;;;15.03;10.87;;;0.70;67.70;;;;;;4838552;28;20253;-74
2021/01/08 07:09:55;;;;;;;14.43;11.17;;;0.70;68.00;;;;;;4844095;28;20712;-75
2021/01/08 07:12:22;;;;;;;14.93;11.13;;;0.70;67.00;;;;;;4870960;28;20599;-74
2021/01/08 07:14:46;;;;;;;15.03;10.33;;;0.70;65.30;;;;;;4848791;28;20241;-76
2021/01/08 07:17:12;;;;;;;16.10;11.33;;;0.70;63.90;;;;;;4847112;28;20206;-75
2021/01/08 07:19:36;;;;;;;15.60;10.80;;;0.70;59.20;;;;;;4846984;28;20206;-82
2021/01/08 07:22:00;;;;;;;16.43;11.37;;;0.80;52.50;;;;;;4844794;28;20190;-74
2021/01/08 07:24:25;;;;;;;15.13;11.10;;;0.80;48.40;;;;;;4843138;28;20214;-75
2021/01/08 07:26:49;;;;;;;15.47;11.20;;;0.70;45.00;;;;;;4845983;28;20335;-73
2021/01/08 07:29:11;;;;;;;13.57;10.80;;;0.90;40.10;;;;;;4846941;28;20660;-74
2021/01/08 07:31:34;;;;;;;16.07;11.33;;;0.80;40.30;;;;;;4844779;28;20240;-81
2021/01/08 07:33:58;;;;;;;14.43;10.50;;;0.80;38.50;;;;;;4847326;28;20189;-75
2021/01/08 07:36:24;;;;;;;15.37;10.90;;;0.90;33.80;;;;;;4855660;28;21096;-74
2021/01/08 07:38:46;;;;;;;17.60;10.70;;;1.10;30.90;;;;;;4839413;28;20997;-77
2021/01/08 07:41:08;;;;;;;16.53;10.77;;;1.00;31.20;;;;;;4856921;28;20194;-73
2021/01/08 07:43:35;;;;;;;15.27;11.20;;;1.10;26.40;;;;;;4856667;28;20604;-75
2021/01/08 07:45:58;;;;;;;17.67;11.50;;;1.10;26.40;;;;;;4855380;28;20210;-74
2021/01/08 07:48:23;;;;;;;16.53;11.80;;;1.10;27.00;;;;;;4839826;28;20190;-74
2021/01/08 07:50:53;;;;;;;17.47;11.70;;;1.20;28.20;;;;;;4856114;28;20615;-74
2021/01/08 07:53:45;;;;;;;19.27;14.53;;;1.30;25.70;;;;;;4839305;28;20198;-74
2021/01/08 07:56:08;;;;;;;25.27;17.47;;;1.30;26.20;;;;;;4857118;28;20220;-80
2021/01/08 07:58:30;;;;;;;21.80;15.50;;;1.30;25.30;;;;;;4852147;28;20559;-75
2021/01/08 08:00:55;;;;;;;21.43;14.83;;;1.40;25.50;;;;;;4840650;28;20186;-73
2021/01/08 08:03:18;;;;;;;20.00;14.17;;;1.40;25.90;;;;;;4852263;28;20210;-74
2021/01/08 08:05:44;;;;;;;21.93;15.27;;;1.50;24.20;;;;;;4846123;28;20182;-74
2021/01/08 08:08:08;;;;;;;23.37;15.27;;;1.60;22.90;;;;;;4847112;28;20185;-76
2021/01/08 08:10:31;;;;;;;21.07;13.10;;;1.60;20.40;;;;;;4846586;28;20296;-77
2021/01/08 08:12:54;;;;;;;21.93;13.10;;;1.70;11.10;;;;;;4845558;28;20250;-76
2021/01/08 08:15:16;;;;;;;18.03;13.17;;;1.70;5.70;;;;;;4845333;28;20689;-83
2021/01/08 08:17:41;;;;;;;21.40;14.90;;;1.80;1.00;;;;;;4850181;28;20260;-74
2021/01/08 08:20:17;;;;;;;17.67;12.20;;;1.80;1.00;;;;;;4846367;28;20783;-74
2021/01/08 08:22:39;;;;;;;17.63;12.30;;;1.90;1.00;;;;;;4847795;28;20200;-74
2021/01/08 08:25:17;;;;;;;13.70;9.77;;;2.00;1.00;;;;;;4827136;28;20253;-78
2021/01/08 08:27:39;;;;;;;13.07;9.80;;;1.90;1.00;;;;;;4842417;28;20191;-79
2021/01/08 08:30:14;;;;;;;13.80;10.00;;;2.00;1.00;;;;;;4850221;28;21030;-74
2021/01/08 08:32:36;;;;;;;12.93;10.63;;;2.10;1.00;;;;;;4844985;28;20206;-73
2021/01/08 08:35:03;;;;;;;14.70;10.37;;;2.20;1.00;;;;;;4844293;28;20233;-78
2021/01/08 08:37:25;;;;;;;15.20;9.63;;;2.30;1.00;;;;;;4844257;28;20198;-78
2021/01/08 08:39:47;;;;;;;12.97;9.33;;;2.30;1.00;;;;;;4840315;28;20230;-80
2021/01/08 08:42:11;;;;;;;12.03;8.67;;;2.50;1.00;;;;;;4843906;28;20194;-81
2021/01/08 08:44:41;;;;;;;14.57;8.83;;;2.50;1.00;;;;;;4847942;28;20710;-78
2021/01/08 08:47:04;;;;;;;12.90;9.73;;;2.70;1.00;;;;;;4849199;28;20714;-76
2021/01/08 08:49:28;;;;;;;14.67;10.97;;;2.80;1.00;;;;;;4845023;28;20214;-80
2021/01/08 08:51:53;;;;;;;11.50;9.07;;;2.80;1.00;;;;;;4846902;28;20245;-76
2021/01/08 08:54:15;;;;;;;11.17;8.17;;;2.90;1.00;;;;;;4856514;28;20194;-75
2021/01/08 08:56:51;;;;;;;11.13;8.27;;;3.00;1.00;;;;;;4845309;28;20185;-79
2021/01/08 08:59:13;;;;;;;11.33;8.53;;;3.10;1.00;;;;;;4842975;28;20206;-77
2021/01/08 09:01:40;;;;;;;11.33;7.83;;;3.20;1.00;;;;;;4850221;28;20263;-80
2021/01/08 09:04:04;;;;;;;12.53;8.77;;;3.40;1.00;;;;;;4847655;28;20253;-75
2021/01/08 09:06:28;;;;;;;12.03;8.40;;;3.30;1.00;;;;;;4847124;28;20731;-79
2021/01/08 09:08:51;;;;;;;12.97;8.83;;;3.50;1.00;;;;;;4845718;28;20198;-77
2021/01/08 09:11:20;;;;;;;10.47;8.40;;;3.50;1.00;;;;;;4849396;28;20226;-74
2021/01/08 09:13:51;;;;;;;9.73;7.93;;;3.60;1.00;;;;;;4848534;28;20191;-77
2021/01/08 09:16:18;;;;;;;11.53;9.57;;;3.50;1.00;;;;;;4847453;28;20217;-78
2021/01/08 09:18:46;;;;;;;10.97;8.60;;;3.60;1.00;;;;;;4847564;28;20203;-78
2021/01/08 09:21:17;;;;;;;10.83;8.93;;;3.50;1.00;;;;;;4847763;28;20660;-79
2021/01/08 09:23:43;;;;;;;10.83;9.20;;;3.50;1.00;;;;;;4848215;28;20788;-80
2021/01/08 09:26:08;;;;;;;11.70;8.47;;;3.60;1.00;;;;;;4854608;28;20656;-73
2021/01/08 09:28:38;;;;;;;10.77;8.50;;;3.60;1.00;;;;;;4848460;28;20202;-73
2021/01/08 09:31:01;;;;;;;13.27;9.43;;;3.60;1.00;;;;;;4851241;28;20222;-80
2021/01/08 09:33:23;;;;;;;13.37;8.43;;;3.60;1.00;;;;;;4856148;28;20691;-77
2021/01/08 09:35:45;;;;;;;11.30;8.37;;;3.40;1.00;;;;;;4848835;28;20253;-82
2021/01/08 09:38:13;;;;;;;11.07;8.10;;;3.50;1.00;;;;;;4842873;28;20183;-77
2021/01/08 09:40:35;;;;;;;9.80;7.80;;;3.70;1.00;;;;;;4848619;28;20613;-80
2021/01/08 09:42:58;;;;;;;10.67;7.90;;;4.60;1.00;;;;;;4849400;28;20191;-74
2021/01/08 09:45:23;;;;;;;9.53;7.30;;;4.80;1.00;;;;;;4849018;28;20198;-81
2021/01/08 09:47:46;;;;;;;8.27;6.60;;;5.90;1.00;;;;;;4850528;28;20190;-80
2021/01/08 09:50:09;;;;;;;7.90;6.27;;;7.20;51.00;;;;;;4851191;28;20296;-75
2021/01/08 09:52:31;;;;;;;8.43;6.33;;;8.90;1.00;;;;;;4849804;28;20647;-75
2021/01/08 09:54:54;;;;;;;8.03;6.00;;;10.60;1.00;;;;;;4849973;28;20194;-74
2021/01/08 09:57:26;;;;;;;6.57;5.57;;;12.10;1.00;;;;;;4839924;28;20182;-82
2021/01/08 09:59:57;;;;;;;7.13;4.73;;;13.70;1.00;;;;;;4839500;28;20226;-81
2021/01/08 10:02:35;;;;;;;6.83;5.33;;;14.80;1.00;;;;;;4848503;28;20699;-77
2021/01/08 10:04:57;;;;;;;5.60;4.70;;;15.40;1.00;;;;;;4847183;28;20245;-83
2021/01/08 10:07:19;;;;;;;5.40;4.40;;;15.10;1.00;;;;;;4848353;28;20253;-80
2021/01/08 10:09:51;;;;;;;5.87;3.90;;;14.40;1.00;;;;;;4842883;28;20602;-79
2021/01/08 10:12:14;;;;;;;6.53;4.53;;;13.20;1.00;;;;;;4853620;28;20287;-75
2021/01/08 10:14:36;;;;;;;4.93;4.43;;;12.10;1.00;;;;;;4848231;28;20179;-81
2021/01/08 10:17:14;;;;;;;4.53;4.10;;;11.30;1.00;;;;;;4850990;28;20264;-79
2021/01/08 10:19:36;;;;;;;5.03;4.20;;;10.40;1.00;;;;;;4843544;28;20233;-75
2021/01/08 10:22:01;;;;;;;5.47;4.47;;;9.00;1.00;;;;;;4840047;28;20192;-82
2021/01/08 10:24:25;;;;;;;5.73;4.70;;;8.70;1.00;;;;;;4840984;28;20240;-79
2021/01/08 10:26:47;;;;;;;7.93;5.13;;;8.00;1.00;;;;;;4849276;28;20714;-74
2021/01/08 10:29:09;;;;;;;5.80;5.00;;;7.40;1.00;;;;;;4849081;28;20246;-80
2021/01/08 10:31:31;;;;;;;5.90;5.07;;;7.50;1.00;;;;;;4850046;28;20190;-80
2021/01/08 10:33:59;;;;;;;6.33;5.30;;;7.30;1.00;;;;;;4844024;28;20248;-74
2021/01/08 10:36:21;;;;;;;6.70;5.47;;;7.10;1.00;;;;;;4852306;28;20197;-74
2021/01/08 10:38:44;;;;;;;5.50;4.90;;;7.00;1.00;;;;;;4843582;28;20191;-73
2021/01/08 10:41:06;;;;;;;5.67;5.07;;;6.90;1.00;;;;;;4846993;28;20284;-73
2021/01/08 10:43:31;;;;;;;6.37;4.83;;;6.70;1.00;;;;;;4844169;28;20194;-82
2021/01/08 10:45:53;;;;;;;5.93;4.80;;;6.60;1.00;;;;;;4846521;28;20257;-78
2021/01/08 10:48:15;;;;;;;6.43;5.07;;;6.40;1.00;;;;;;4848463;28;20186;-76
2021/01/08 10:50:39;;;;;;;5.23;4.50;;;6.30;1.00;;;;;;4846823;28;20207;-73
2021/01/08 10:53:01;;;;;;;6.20;4.77;;;6.30;1.00;;;;;;4839022;28;20186;-72
2021/01/08 10:55:23;;;;;;;5.03;4.53;;;6.30;1.00;;;;;;4837930;28;20269;-73
2021/01/08 10:57:45;;;;;;;6.80;4.63;;;6.40;1.00;;;;;;4837289;28;21002;-72
2021/01/08 11:00:09;;;;;;;5.27;4.43;;;6.50;1.00;;;;;;4837106;28;20241;-72
2021/01/08 11:02:31;;;;;;;5.27;4.43;;;6.50;1.00;;;;;;4851773;28;20272;-73
2021/01/08 11:04:53;;;;;;;4.97;4.30;;;6.40;1.00;;;;;;4849647;28;20621;-72
2021/01/08 11:07:16;;;;;;;4.67;4.23;;;6.40;1.00;;;;;;4849032;28;20229;-80
2021/01/08 11:09:38;;;;;;;4.63;3.73;;;6.60;1.00;;;;;;4831387;28;20202;-80
2021/01/08 11:12:01;;;;;;;4.60;4.00;;;7.80;1.00;;;;;;4831551;28;20575;-73
2021/01/08 11:14:23;;;;;;;3.83;3.43;;;7.90;1.00;;;;;;4843879;28;20257;-72
2021/01/08 11:16:45;;;;;;;3.60;3.30;;;8.20;1.00;;;;;;4849356;28;20195;-76
2021/01/08 11:19:07;;;;;;;3.87;3.27;;;8.00;1.00;;;;;;4853023;28;20178;-80
2021/01/08 11:21:29;;;;;;;3.40;3.10;;;7.70;1.00;;;;;;4843890;28;20222;-79
2021/01/08 11:23:52;;;;;;;3.67;3.30;;;7.40;1.00;;;;;;4851339;28;20252;-79
2021/01/08 11:26:22;;;;;;;3.17;2.87;;;7.20;1.00;;;;;;4841238;28;20241;-78
2021/01/08 11:28:44;;;;;;;3.40;3.10;;;6.90;1.00;;;;;;4847894;28;20668;-79
2021/01/08 11:31:07;;;;;;;3.63;3.27;;;6.50;1.00;;;;;;4842070;28;20203;-77
2021/01/08 11:33:29;;;;;;;3.63;2.77;;;6.20;1.00;;;;;;4845852;28;20198;-76
2021/01/08 11:35:51;;;;;;;3.93;3.30;;;6.00;1.00;;;;;;4845840;28;20225;-81
2021/01/08 11:38:13;;;;;;;3.83;3.43;;;5.80;1.00;;;;;;4848812;28;20225;-74
2021/01/08 11:40:36;;;;;;;3.10;2.80;;;5.70;1.00;;;;;;4842835;28;20217;-73
2021/01/08 11:42:58;;;;;;;3.67;3.10;;;5.80;1.00;;;;;;4845100;28;20244;-79
2021/01/08 11:45:20;;;;;;;3.60;3.00;;;5.90;1.00;;;;;;4842979;28;20198;-80
2021/01/08 11:47:43;;;;;;;3.50;3.10;;;6.10;1.00;;;;;;4840150;28;20753;-73
2021/01/08 11:50:06;;;;;;;3.33;3.00;;;6.30;1.00;;;;;;4844827;28;20191;-73
2021/01/08 11:52:29;;;;;;;2.77;2.47;;;6.40;1.00;;;;;;4846235;28;20745;-76
2021/01/08 11:54:51;;;;;;;3.50;3.00;;;6.60;1.00;;;;;;4847900;28;20199;-81
2021/01/08 11:57:14;;;;;;;4.00;2.63;;;7.30;1.00;;;;;;4846515;28;20187;-77
2021/01/08 11:59:36;;;;;;;2.97;2.57;;;8.70;1.00;;;;;;4847308;28;20232;-77
2021/01/08 12:02:03;;;;;;;2.13;1.93;;;12.70;1.00;;;;;;4845759;28;20226;-74
2021/01/08 12:04:25;;;;;;;1.20;1.07;;;13.10;1.00;;;;;;4842992;28;20696;-74
2021/01/08 12:06:47;;;;;;;1.00;1.00;;;16.70;1.00;;;;;;4841956;28;20237;-73
2021/01/08 12:09:11;;;;;;;1.00;0.90;;;16.90;1.00;;;;;;4823117;28;20195;-71
2021/01/08 12:11:33;;;;;;;0.60;0.60;;;18.40;1.00;;;;;;4849234;28;20257;-73
2021/01/08 12:13:57;;;;;;;0.40;0.40;;;19.80;1.00;;;;;;4845775;28;20224;-73
2021/01/08 12:16:26;;;;;;;0.27;0.27;;;21.50;1.00;;;;;;4844998;28;20194;-72
2021/01/08 12:18:48;;;;;;;0.20;0.20;;;21.80;1.00;;;;;;4845487;28;20248;-72
2021/01/08 12:21:10;;;;;;;0.03;0.03;;;22.60;1.00;;;;;;4844969;28;20612;-71
2021/01/08 12:23:32;;;;;;;0.10;0.10;;;23.50;1.00;;;;;;4853238;28;20657;-72
2021/01/08 12:25:54;;;;;;;0.10;0.10;;;24.40;1.00;;;;;;4853753;28;20196;-71
2021/01/08 12:28:16;;;;;;;0.10;0.10;;;24.50;1.00;;;;;;4855123;28;20211;-76
2021/01/08 12:30:43;;;;;;;0.10;0.10;;;24.30;1.00;;;;;;4842966;28;20205;-72